PWSweather.com
Personal Weather Stations
Station Observations

MakarauRodneyNZ

Lat: -36.52421, Lon: 174.47572

Elevation: 606

Station Type: Davis VP2

http://kaiparaweather.dynu.net/index.php

High Low Average
Temperature 76.7°F24.8°C 61.8°F16.6°C 68.4°F20.2°C
Dew Point 66.3°F19.1°C 58.7°F14.8°C 62.1°F16.7°C
Winds 13.8 mph 22.2 kmh Calm Calm 2.0 mph W3.2 kmh W
Wind Gusts 17.3 mph27.8 kmh -- 4.0 mph6.4 kmh
Humidity 93% 66% 81%
Pressure 30.16 in1021.3 mb 29.90 in1012.5 mb -
Precipitation 0.00 in0.0 mm - -
Hour Temp Dew Point Humidity Winds Wind Gusts Pressure Precip Precip Rate Daily Precip Total
12:00 AM 64.5°F18.1°C 59.2°F15.1°C 83% Calm Calm -- 30.16 in1021.3 mb - 0.00 in0.0 mm 0.00 in0.0 mm
12:10 AM 64.5°F18.1°C 59.5°F15.3°C 84% Calm Calm -- 30.16 in1021.3 mb - 0.00 in0.0 mm 0.00 in0.0 mm
12:20 AM 64.6°F18.1°C 59.6°F15.3°C 84% Calm Calm -- 30.16 in1021.3 mb - 0.00 in0.0 mm 0.00 in0.0 mm
12:30 AM 64.6°F18.1°C 59.7°F15.4°C 84% Calm Calm -- 30.15 in1021.0 mb - 0.00 in0.0 mm 0.00 in0.0 mm
12:40 AM 64.6°F18.1°C 59.7°F15.4°C 84% Calm Calm -- 30.15 in1021.0 mb - 0.00 in0.0 mm 0.00 in0.0 mm
12:50 AM 64.6°F18.1°C 59.7°F15.4°C 84% Calm Calm -- 30.15 in1021.0 mb - 0.00 in0.0 mm 0.00 in0.0 mm
01:00 AM 64.5°F18.1°C 59.9°F15.5°C 85% Calm Calm -- 30.14 in1020.7 mb - 0.00 in0.0 mm 0.00 in0.0 mm
01:10 AM 64.4°F18.0°C 59.5°F15.3°C 84% Calm Calm -- 30.14 in1020.7 mb - 0.00 in0.0 mm 0.00 in0.0 mm
01:20 AM 64.2°F17.9°C 59.3°F15.2°C 84% Calm Calm -- 30.14 in1020.7 mb - 0.00 in0.0 mm 0.00 in0.0 mm
01:30 AM 64.1°F17.8°C 59.5°F15.3°C 85% Calm Calm -- 30.14 in1020.7 mb - 0.00 in0.0 mm 0.00 in0.0 mm
01:40 AM 64.1°F17.8°C 59.5°F15.3°C 85% Calm Calm -- 30.13 in1020.3 mb - 0.00 in0.0 mm 0.00 in0.0 mm
01:50 AM 64.0°F17.8°C 59.4°F15.2°C 85% Calm Calm -- 30.13 in1020.3 mb - 0.00 in0.0 mm 0.00 in0.0 mm
02:00 AM 63.9°F17.7°C 59.6°F15.3°C 86% Calm Calm -- 30.13 in1020.3 mb - 0.00 in0.0 mm 0.00 in0.0 mm
02:10 AM 63.9°F17.7°C 59.6°F15.3°C 86% Calm Calm -- 30.12 in1020.0 mb - 0.00 in0.0 mm 0.00 in0.0 mm
02:20 AM 63.8°F17.7°C 59.6°F15.3°C 86% Calm Calm -- 30.12 in1020.0 mb - 0.00 in0.0 mm 0.00 in0.0 mm
02:30 AM 63.7°F17.6°C 59.4°F15.2°C 86% Calm Calm -- 30.12 in1020.0 mb - 0.00 in0.0 mm 0.00 in0.0 mm
02:40 AM 63.5°F17.5°C 59.2°F15.1°C 86% Calm Calm -- 30.12 in1020.0 mb - 0.00 in0.0 mm 0.00 in0.0 mm
02:50 AM 63.5°F17.5°C 59.2°F15.1°C 86% Calm Calm -- 30.12 in1020.0 mb - 0.00 in0.0 mm 0.00 in0.0 mm
03:00 AM 63.6°F17.6°C 59.3°F15.2°C 86% Calm Calm -- 30.11 in1019.6 mb - 0.00 in0.0 mm 0.00 in0.0 mm
03:10 AM 63.5°F17.5°C 59.2°F15.1°C 86% Calm Calm -- 30.11 in1019.6 mb - 0.00 in0.0 mm 0.00 in0.0 mm
03:20 AM 63.4°F17.4°C 59.1°F15.1°C 86% Calm Calm -- 30.11 in1019.6 mb - 0.00 in0.0 mm 0.00 in0.0 mm
03:30 AM 63.1°F17.3°C 58.9°F14.9°C 86% Calm Calm -- 30.11 in1019.6 mb - 0.00 in0.0 mm 0.00 in0.0 mm
03:40 AM 63.0°F17.2°C 58.7°F14.8°C 86% Calm Calm -- 30.10 in1019.3 mb - 0.00 in0.0 mm 0.00 in0.0 mm
03:50 AM 62.9°F17.2°C 58.9°F14.9°C 87% Calm Calm -- 30.10 in1019.3 mb - 0.00 in0.0 mm 0.00 in0.0 mm
04:00 AM 62.7°F17.1°C 58.7°F14.8°C 87% Calm Calm -- 30.10 in1019.3 mb - 0.00 in0.0 mm 0.00 in0.0 mm
04:10 AM 62.5°F16.9°C 58.9°F14.9°C 88% Calm Calm -- 30.10 in1019.3 mb - 0.00 in0.0 mm 0.00 in0.0 mm
04:20 AM 62.6°F17.0°C 59.0°F15.0°C 88% Calm Calm -- 30.09 in1019.0 mb - 0.00 in0.0 mm 0.00 in0.0 mm
04:30 AM 62.5°F16.9°C 59.2°F15.1°C 89% Calm Calm -- 30.09 in1019.0 mb - 0.00 in0.0 mm 0.00 in0.0 mm
04:40 AM 62.3°F16.8°C 59.0°F15.0°C 89% Calm Calm -- 30.09 in1019.0 mb - 0.00 in0.0 mm 0.00 in0.0 mm
04:50 AM 62.1°F16.7°C 58.8°F14.9°C 89% Calm Calm -- 30.10 in1019.3 mb - 0.00 in0.0 mm 0.00 in0.0 mm
05:00 AM 62.0°F16.7°C 59.0°F15.0°C 90% Calm Calm -- 30.10 in1019.3 mb - 0.00 in0.0 mm 0.00 in0.0 mm
05:10 AM 62.0°F16.7°C 59.0°F15.0°C 90% Calm Calm -- 30.09 in1019.0 mb - 0.00 in0.0 mm 0.00 in0.0 mm
05:20 AM 61.8°F16.6°C 58.8°F14.9°C 90% Calm Calm -- 30.09 in1019.0 mb - 0.00 in0.0 mm 0.00 in0.0 mm
05:30 AM 61.8°F16.6°C 59.1°F15.1°C 91% Calm Calm -- 30.09 in1019.0 mb - 0.00 in0.0 mm 0.00 in0.0 mm
05:40 AM 62.0°F16.7°C 59.4°F15.2°C 91% Calm Calm -- 30.09 in1019.0 mb - 0.00 in0.0 mm 0.00 in0.0 mm
05:50 AM 62.1°F16.7°C 59.4°F15.2°C 91% Calm Calm -- 30.09 in1019.0 mb - 0.00 in0.0 mm 0.00 in0.0 mm
06:00 AM 62.2°F16.8°C 59.8°F15.4°C 92% Calm Calm -- 30.09 in1019.0 mb - 0.00 in0.0 mm 0.00 in0.0 mm
06:10 AM 62.4°F16.9°C 60.0°F15.6°C 92% Calm Calm -- 30.09 in1019.0 mb - 0.00 in0.0 mm 0.00 in0.0 mm
06:20 AM 62.7°F17.1°C 60.3°F15.7°C 92% Calm Calm -- 30.09 in1019.0 mb - 0.00 in0.0 mm 0.00 in0.0 mm
06:30 AM 63.2°F17.3°C 60.8°F16.0°C 92% Calm Calm -- 30.09 in1019.0 mb - 0.00 in0.0 mm 0.00 in0.0 mm
06:40 AM 64.5°F18.1°C 62.4°F16.9°C 93% Calm Calm -- 30.09 in1019.0 mb - 0.00 in0.0 mm 0.00 in0.0 mm
06:50 AM 65.3°F18.5°C 62.3°F16.8°C 90% Calm Calm -- 30.09 in1019.0 mb - 0.00 in0.0 mm 0.00 in0.0 mm
07:00 AM 65.2°F18.4°C 61.9°F16.6°C 89% 3.5 mph SW5.6 kmh SW 3.5 mph5.6 kmh 30.09 in1019.0 mb - 0.00 in0.0 mm 0.00 in0.0 mm
07:10 AM 66.1°F18.9°C 62.8°F17.1°C 89% 3.5 mph SW5.6 kmh SW 4.6 mph7.4 kmh 30.09 in1019.0 mb - 0.00 in0.0 mm 0.00 in0.0 mm
07:20 AM 66.4°F19.1°C 62.4°F16.9°C 87% Calm Calm -- 30.09 in1019.0 mb - 0.00 in0.0 mm 0.00 in0.0 mm
07:30 AM 66.9°F19.4°C 62.9°F17.2°C 87% Calm Calm -- 30.09 in1019.0 mb - 0.00 in0.0 mm 0.00 in0.0 mm
07:40 AM 67.0°F19.4°C 62.6°F17.0°C 86% 1.2 mph SW1.9 kmh SW 3.5 mph5.6 kmh 30.08 in1018.6 mb - 0.00 in0.0 mm 0.00 in0.0 mm
07:50 AM 66.6°F19.2°C 62.3°F16.8°C 86% 1.2 mph SW1.9 kmh SW 5.8 mph9.3 kmh 30.08 in1018.6 mb - 0.00 in0.0 mm 0.00 in0.0 mm
08:00 AM 67.3°F19.6°C 63.0°F17.2°C 86% 2.3 mph SW3.7 kmh SW 5.8 mph9.3 kmh 30.08 in1018.6 mb - 0.00 in0.0 mm 0.00 in0.0 mm
08:10 AM 68.6°F20.3°C 63.6°F17.6°C 84% 3.5 mph NNW5.6 kmh NNW 8.1 mph13.0 kmh 30.08 in1018.6 mb - 0.00 in0.0 mm 0.00 in0.0 mm
08:20 AM 69.6°F20.9°C 62.5°F16.9°C 78% 5.8 mph SW9.3 kmh SW 8.1 mph13.0 kmh 30.07 in1018.3 mb - 0.00 in0.0 mm 0.00 in0.0 mm
08:30 AM 68.8°F20.4°C 63.1°F17.3°C 82% Calm Calm 3.5 mph5.6 kmh 30.07 in1018.3 mb - 0.00 in0.0 mm 0.00 in0.0 mm
08:40 AM 68.7°F20.4°C 62.7°F17.1°C 81% 1.2 mph SSW1.9 kmh SSW 3.5 mph5.6 kmh 30.06 in1017.9 mb - 0.00 in0.0 mm 0.00 in0.0 mm
08:50 AM 70.8°F21.6°C 63.9°F17.7°C 79% Calm Calm -- 30.06 in1017.9 mb - 0.00 in0.0 mm 0.00 in0.0 mm
09:00 AM 71.7°F22.1°C 63.3°F17.4°C 75% Calm Calm 3.5 mph5.6 kmh 30.06 in1017.9 mb - 0.00 in0.0 mm 0.00 in0.0 mm
09:10 AM 72.6°F22.6°C 65.3°F18.5°C 78% 1.2 mph WSW1.9 kmh WSW 3.5 mph5.6 kmh 30.05 in1017.6 mb - 0.00 in0.0 mm 0.00 in0.0 mm
09:20 AM 74.7°F23.7°C 65.9°F18.8°C 74% 3.5 mph NNW5.6 kmh NNW 8.1 mph13.0 kmh 30.05 in1017.6 mb - 0.00 in0.0 mm 0.00 in0.0 mm
09:30 AM 75.7°F24.3°C 66.0°F18.9°C 72% 2.3 mph NNW3.7 kmh NNW 2.3 mph3.7 kmh 30.05 in1017.6 mb - 0.00 in0.0 mm 0.00 in0.0 mm
09:40 AM 76.3°F24.6°C 65.8°F18.8°C 70% 1.2 mph WSW1.9 kmh WSW 3.5 mph5.6 kmh 30.05 in1017.6 mb - 0.00 in0.0 mm 0.00 in0.0 mm
09:50 AM 76.0°F24.4°C 65.1°F18.4°C 69% 1.2 mph WSW1.9 kmh WSW 4.6 mph7.4 kmh 30.04 in1017.3 mb - 0.00 in0.0 mm 0.00 in0.0 mm
10:00 AM 74.5°F23.6°C 65.3°F18.5°C 73% 6.9 mph NNW11.1 kmh NNW 12.7 mph20.4 kmh 30.04 in1017.3 mb - 0.00 in0.0 mm 0.00 in0.0 mm
10:10 AM 75.7°F24.3°C 65.6°F18.7°C 71% 5.8 mph W9.3 kmh W 9.2 mph14.8 kmh 30.04 in1017.3 mb - 0.00 in0.0 mm 0.00 in0.0 mm
10:20 AM 76.6°F24.8°C 66.1°F18.9°C 70% 6.9 mph NW11.1 kmh NW 8.1 mph13.0 kmh 30.04 in1017.3 mb - 0.00 in0.0 mm 0.00 in0.0 mm
10:30 AM 75.8°F24.3°C 66.1°F18.9°C 72% 1.2 mph WSW1.9 kmh WSW 4.6 mph7.4 kmh 30.03 in1016.9 mb - 0.00 in0.0 mm 0.00 in0.0 mm
10:40 AM 75.3°F24.1°C 64.8°F18.2°C 70% 3.5 mph WSW5.6 kmh WSW 9.2 mph14.8 kmh 30.03 in1016.9 mb - 0.00 in0.0 mm 0.00 in0.0 mm
10:50 AM 74.5°F23.6°C 64.8°F18.2°C 72% 1.2 mph WSW1.9 kmh WSW 3.5 mph5.6 kmh 30.02 in1016.6 mb - 0.00 in0.0 mm 0.00 in0.0 mm
11:00 AM 74.4°F23.6°C 64.0°F17.8°C 70% 8.1 mph WNW13.0 kmh WNW 10.4 mph16.7 kmh 30.02 in1016.6 mb - 0.00 in0.0 mm 0.00 in0.0 mm
11:10 AM 73.6°F23.1°C 64.8°F18.2°C 74% 2.3 mph NW3.7 kmh NW 9.2 mph14.8 kmh 30.02 in1016.6 mb - 0.00 in0.0 mm 0.00 in0.0 mm
11:20 AM 74.0°F23.3°C 64.0°F17.8°C 71% 3.5 mph NW5.6 kmh NW 8.1 mph13.0 kmh 30.02 in1016.6 mb - 0.00 in0.0 mm 0.00 in0.0 mm
11:30 AM 74.0°F23.3°C 64.0°F17.8°C 71% 5.8 mph SW9.3 kmh SW 10.4 mph16.7 kmh 30.01 in1016.3 mb - 0.00 in0.0 mm 0.00 in0.0 mm
11:40 AM 73.9°F23.3°C 64.3°F17.9°C 72% Calm Calm 4.6 mph7.4 kmh 30.01 in1016.3 mb - 0.00 in0.0 mm 0.00 in0.0 mm
11:50 AM 73.7°F23.2°C 64.2°F17.9°C 72% 2.3 mph SW3.7 kmh SW 6.9 mph11.1 kmh 30.01 in1016.3 mb - 0.00 in0.0 mm 0.00 in0.0 mm
12:00 PM 74.2°F23.4°C 63.7°F17.6°C 70% 5.8 mph SW9.3 kmh SW 11.5 mph18.5 kmh 30.00 in1015.9 mb - 0.00 in0.0 mm 0.00 in0.0 mm
12:10 PM 74.3°F23.5°C 64.3°F17.9°C 71% 1.2 mph WSW1.9 kmh WSW -- 30.00 in1015.9 mb - 0.00 in0.0 mm 0.00 in0.0 mm
12:20 PM 74.8°F23.8°C 64.7°F18.2°C 71% 3.5 mph WSW5.6 kmh WSW 6.9 mph11.1 kmh 29.99 in1015.6 mb - 0.00 in0.0 mm 0.00 in0.0 mm
12:30 PM 75.2°F24.0°C 64.3°F17.9°C 69% 1.2 mph NW1.9 kmh NW -- 29.99 in1015.6 mb - 0.00 in0.0 mm 0.00 in0.0 mm
12:40 PM 74.9°F23.8°C 64.5°F18.1°C 70% 4.6 mph W7.4 kmh W 12.7 mph20.4 kmh 29.98 in1015.2 mb - 0.00 in0.0 mm 0.00 in0.0 mm
12:50 PM 76.0°F24.4°C 66.3°F19.1°C 72% Calm Calm 5.8 mph9.3 kmh 29.98 in1015.2 mb - 0.00 in0.0 mm 0.00 in0.0 mm
01:00 PM 75.9°F24.4°C 64.6°F18.1°C 68% 2.3 mph W3.7 kmh W 9.2 mph14.8 kmh 29.98 in1015.2 mb - 0.00 in0.0 mm 0.00 in0.0 mm
01:10 PM 76.5°F24.7°C 64.3°F17.9°C 66% 2.3 mph WSW3.7 kmh WSW 9.2 mph14.8 kmh 29.97 in1014.9 mb - 0.00 in0.0 mm 0.00 in0.0 mm
01:20 PM 76.2°F24.6°C 64.9°F18.3°C 68% 6.9 mph NW11.1 kmh NW 16.1 mph25.9 kmh 29.97 in1014.9 mb - 0.00 in0.0 mm 0.00 in0.0 mm
01:30 PM 76.7°F24.8°C 64.5°F18.1°C 66% 8.1 mph NW13.0 kmh NW 13.8 mph22.2 kmh 29.96 in1014.6 mb - 0.00 in0.0 mm 0.00 in0.0 mm
01:40 PM 75.6°F24.2°C 63.8°F17.7°C 67% 3.5 mph WSW5.6 kmh WSW 5.8 mph9.3 kmh 29.96 in1014.6 mb - 0.00 in0.0 mm 0.00 in0.0 mm
01:50 PM 76.3°F24.6°C 64.5°F18.1°C 67% 6.9 mph WSW11.1 kmh WSW 11.5 mph18.5 kmh 29.96 in1014.6 mb - 0.00 in0.0 mm 0.00 in0.0 mm
02:00 PM 74.8°F23.8°C 63.9°F17.7°C 69% 5.8 mph WSW9.3 kmh WSW 5.8 mph9.3 kmh 29.96 in1014.6 mb - 0.00 in0.0 mm 0.00 in0.0 mm
02:10 PM 74.7°F23.7°C 65.8°F18.8°C 74% 4.6 mph SW7.4 kmh SW 12.7 mph20.4 kmh 29.96 in1014.6 mb - 0.00 in0.0 mm 0.00 in0.0 mm
02:20 PM 73.7°F23.2°C 63.3°F17.4°C 70% 11.5 mph WSW18.5 kmh WSW 13.8 mph22.2 kmh 29.95 in1014.2 mb - 0.00 in0.0 mm 0.00 in0.0 mm
02:30 PM 73.1°F22.8°C 63.6°F17.6°C 72% 11.5 mph SW18.5 kmh SW 16.1 mph25.9 kmh 29.95 in1014.2 mb - 0.00 in0.0 mm 0.00 in0.0 mm
02:40 PM 73.0°F22.8°C 63.8°F17.7°C 73% 5.8 mph WSW9.3 kmh WSW 11.5 mph18.5 kmh 29.95 in1014.2 mb - 0.00 in0.0 mm 0.00 in0.0 mm
02:50 PM 73.8°F23.2°C 63.8°F17.7°C 71% 4.6 mph WSW7.4 kmh WSW 10.4 mph16.7 kmh 29.95 in1014.2 mb - 0.00 in0.0 mm 0.00 in0.0 mm
03:00 PM 74.5°F23.6°C 63.7°F17.6°C 69% 2.3 mph SW3.7 kmh SW 11.5 mph18.5 kmh 29.94 in1013.9 mb - 0.00 in0.0 mm 0.00 in0.0 mm
03:10 PM 74.0°F23.3°C 64.0°F17.8°C 71% 6.9 mph SW11.1 kmh SW 10.4 mph16.7 kmh 29.94 in1013.9 mb - 0.00 in0.0 mm 0.00 in0.0 mm
03:20 PM 73.1°F22.8°C 63.5°F17.5°C 72% 3.5 mph SW5.6 kmh SW 10.4 mph16.7 kmh 29.93 in1013.5 mb - 0.00 in0.0 mm 0.00 in0.0 mm
03:30 PM 73.9°F23.3°C 63.9°F17.7°C 71% 2.3 mph WSW3.7 kmh WSW 10.4 mph16.7 kmh 29.93 in1013.5 mb - 0.00 in0.0 mm 0.00 in0.0 mm
03:40 PM 74.6°F23.7°C 64.6°F18.1°C 71% 3.5 mph WSW5.6 kmh WSW 9.2 mph14.8 kmh 29.93 in1013.5 mb - 0.00 in0.0 mm 0.00 in0.0 mm
03:50 PM 74.7°F23.7°C 64.2°F17.9°C 70% 5.8 mph SW9.3 kmh SW 13.8 mph22.2 kmh 29.93 in1013.5 mb - 0.00 in0.0 mm 0.00 in0.0 mm
04:00 PM 73.2°F22.9°C 63.2°F17.3°C 71% 12.7 mph SW20.4 kmh SW 17.3 mph27.8 kmh 29.92 in1013.2 mb - 0.00 in0.0 mm 0.00 in0.0 mm
04:10 PM 72.4°F22.4°C 62.4°F16.9°C 71% 11.5 mph SW18.5 kmh SW 13.8 mph22.2 kmh 29.92 in1013.2 mb - 0.00 in0.0 mm 0.00 in0.0 mm
04:20 PM 72.5°F22.5°C 61.8°F16.6°C 69% 11.5 mph SW18.5 kmh SW 13.8 mph22.2 kmh 29.92 in1013.2 mb - 0.00 in0.0 mm 0.00 in0.0 mm
04:30 PM 72.4°F22.4°C 61.7°F16.5°C 69% 13.8 mph SW22.2 kmh SW 15.0 mph24.1 kmh 29.92 in1013.2 mb - 0.00 in0.0 mm 0.00 in0.0 mm
04:40 PM 71.4°F21.9°C 62.3°F16.8°C 73% 11.5 mph SW18.5 kmh SW 13.8 mph22.2 kmh 29.92 in1013.2 mb - 0.00 in0.0 mm 0.00 in0.0 mm
04:50 PM 71.8°F22.1°C 63.4°F17.4°C 75% 2.3 mph WSW3.7 kmh WSW -- 29.92 in1013.2 mb - 0.00 in0.0 mm 0.00 in0.0 mm
05:00 PM 71.6°F22.0°C 63.3°F17.4°C 75% 3.5 mph WSW5.6 kmh WSW 5.8 mph9.3 kmh 29.92 in1013.2 mb - 0.00 in0.0 mm 0.00 in0.0 mm
05:10 PM 70.3°F21.3°C 63.1°F17.3°C 78% 5.8 mph SW9.3 kmh SW 8.1 mph13.0 kmh 29.92 in1013.2 mb - 0.00 in0.0 mm 0.00 in0.0 mm
05:20 PM 71.6°F22.0°C 64.0°F17.8°C 77% 6.9 mph SW11.1 kmh SW 13.8 mph22.2 kmh 29.91 in1012.9 mb - 0.00 in0.0 mm 0.00 in0.0 mm
05:30 PM 70.2°F21.2°C 63.0°F17.2°C 78% 5.8 mph SW9.3 kmh SW 11.5 mph18.5 kmh 29.91 in1012.9 mb - 0.00 in0.0 mm 0.00 in0.0 mm
05:40 PM 70.2°F21.2°C 63.4°F17.4°C 79% 11.5 mph SW18.5 kmh SW 12.7 mph20.4 kmh 29.92 in1013.2 mb - 0.00 in0.0 mm 0.00 in0.0 mm
05:50 PM 69.1°F20.6°C 63.1°F17.3°C 81% 5.8 mph SW9.3 kmh SW 11.5 mph18.5 kmh 29.92 in1013.2 mb - 0.00 in0.0 mm 0.00 in0.0 mm
06:00 PM 68.8°F20.4°C 62.7°F17.1°C 81% 4.6 mph SW7.4 kmh SW 12.7 mph20.4 kmh 29.91 in1012.9 mb - 0.00 in0.0 mm 0.00 in0.0 mm
06:10 PM 69.3°F20.7°C 63.2°F17.3°C 81% 9.2 mph SW14.8 kmh SW 11.5 mph18.5 kmh 29.92 in1013.2 mb - 0.00 in0.0 mm 0.00 in0.0 mm
06:20 PM 69.6°F20.9°C 63.5°F17.5°C 81% 4.6 mph SW7.4 kmh SW 10.4 mph16.7 kmh 29.92 in1013.2 mb - 0.00 in0.0 mm 0.00 in0.0 mm
06:30 PM 69.6°F20.9°C 63.2°F17.3°C 80% 2.3 mph SW3.7 kmh SW 8.1 mph13.0 kmh 29.91 in1012.9 mb - 0.00 in0.0 mm 0.00 in0.0 mm
06:40 PM 68.6°F20.3°C 62.5°F16.9°C 81% Calm Calm -- 29.92 in1013.2 mb - 0.00 in0.0 mm 0.00 in0.0 mm
06:50 PM 68.9°F20.5°C 62.9°F17.2°C 81% 3.5 mph SW5.6 kmh SW 5.8 mph9.3 kmh 29.92 in1013.2 mb - 0.00 in0.0 mm 0.00 in0.0 mm
07:00 PM 68.4°F20.2°C 62.3°F16.8°C 81% Calm Calm 1.2 mph1.9 kmh 29.92 in1013.2 mb - 0.00 in0.0 mm 0.00 in0.0 mm
07:10 PM 67.2°F19.6°C 61.8°F16.6°C 83% 2.3 mph SW3.7 kmh SW 5.8 mph9.3 kmh 29.92 in1013.2 mb - 0.00 in0.0 mm 0.00 in0.0 mm
07:20 PM 66.7°F19.3°C 61.7°F16.5°C 84% Calm Calm -- 29.92 in1013.2 mb - 0.00 in0.0 mm 0.00 in0.0 mm
07:30 PM 66.4°F19.1°C 62.1°F16.7°C 86% Calm Calm 1.2 mph1.9 kmh 29.92 in1013.2 mb - 0.00 in0.0 mm 0.00 in0.0 mm
07:40 PM 66.2°F19.0°C 61.9°F16.6°C 86% 3.5 mph SW5.6 kmh SW 3.5 mph5.6 kmh 29.92 in1013.2 mb - 0.00 in0.0 mm 0.00 in0.0 mm
07:50 PM 66.1°F18.9°C 62.1°F16.7°C 87% Calm Calm 8.1 mph13.0 kmh 29.92 in1013.2 mb - 0.00 in0.0 mm 0.00 in0.0 mm
08:00 PM 66.1°F18.9°C 62.1°F16.7°C 87% Calm Calm -- 29.92 in1013.2 mb - 0.00 in0.0 mm 0.00 in0.0 mm
08:10 PM 66.1°F18.9°C 62.1°F16.7°C 87% Calm Calm 5.8 mph9.3 kmh 29.92 in1013.2 mb - 0.00 in0.0 mm 0.00 in0.0 mm
08:20 PM 66.0°F18.9°C 62.1°F16.7°C 87% Calm Calm -- 29.92 in1013.2 mb - 0.00 in0.0 mm 0.00 in0.0 mm
08:30 PM 65.5°F18.6°C 61.5°F16.4°C 87% 2.3 mph SW3.7 kmh SW 3.5 mph5.6 kmh 29.92 in1013.2 mb - 0.00 in0.0 mm 0.00 in0.0 mm
08:40 PM 65.3°F18.5°C 61.7°F16.5°C 88% Calm Calm -- 29.92 in1013.2 mb - 0.00 in0.0 mm 0.00 in0.0 mm
08:50 PM 65.3°F18.5°C 61.7°F16.5°C 88% Calm Calm -- 29.93 in1013.5 mb - 0.00 in0.0 mm 0.00 in0.0 mm
09:00 PM 65.4°F18.6°C 61.7°F16.5°C 88% Calm Calm -- 29.93 in1013.5 mb - 0.00 in0.0 mm 0.00 in0.0 mm
09:10 PM 65.2°F18.4°C 61.6°F16.4°C 88% Calm Calm -- 29.93 in1013.5 mb - 0.00 in0.0 mm 0.00 in0.0 mm
09:20 PM 64.9°F18.3°C 61.3°F16.3°C 88% Calm Calm -- 29.93 in1013.5 mb - 0.00 in0.0 mm 0.00 in0.0 mm
09:30 PM 64.9°F18.3°C 61.3°F16.3°C 88% Calm Calm -- 29.93 in1013.5 mb - 0.00 in0.0 mm 0.00 in0.0 mm
09:40 PM 65.0°F18.3°C 61.4°F16.3°C 88% Calm Calm -- 29.93 in1013.5 mb - 0.00 in0.0 mm 0.00 in0.0 mm
09:50 PM 65.1°F18.4°C 61.8°F16.6°C 89% Calm Calm -- 29.93 in1013.5 mb - 0.00 in0.0 mm 0.00 in0.0 mm
10:00 PM 65.2°F18.4°C 61.9°F16.6°C 89% Calm Calm -- 29.93 in1013.5 mb - 0.00 in0.0 mm 0.00 in0.0 mm
10:10 PM 65.2°F18.4°C 61.8°F16.6°C 89% Calm Calm -- 29.93 in1013.5 mb - 0.00 in0.0 mm 0.00 in0.0 mm
10:20 PM 65.1°F18.4°C 61.7°F16.5°C 89% Calm Calm -- 29.92 in1013.2 mb - 0.00 in0.0 mm 0.00 in0.0 mm
10:30 PM 65.1°F18.4°C 61.8°F16.6°C 89% Calm Calm -- 29.92 in1013.2 mb - 0.00 in0.0 mm 0.00 in0.0 mm
10:40 PM 65.2°F18.4°C 61.9°F16.6°C 89% Calm Calm -- 29.92 in1013.2 mb - 0.00 in0.0 mm 0.00 in0.0 mm
10:50 PM 65.1°F18.4°C 61.7°F16.5°C 89% Calm Calm -- 29.92 in1013.2 mb - 0.00 in0.0 mm 0.00 in0.0 mm
11:00 PM 64.8°F18.2°C 61.5°F16.4°C 89% Calm Calm -- 29.92 in1013.2 mb - 0.00 in0.0 mm 0.00 in0.0 mm
11:10 PM 64.7°F18.2°C 61.4°F16.3°C 89% Calm Calm -- 29.91 in1012.9 mb - 0.00 in0.0 mm 0.00 in0.0 mm
11:20 PM 64.8°F18.2°C 61.5°F16.4°C 89% 3.5 mph NNW5.6 kmh NNW 8.1 mph13.0 kmh 29.91 in1012.9 mb - 0.00 in0.0 mm 0.00 in0.0 mm
11:30 PM 65.0°F18.3°C 61.4°F16.3°C 88% 2.3 mph NNW3.7 kmh NNW 5.8 mph9.3 kmh 29.91 in1012.9 mb - 0.00 in0.0 mm 0.00 in0.0 mm
11:40 PM 65.1°F18.4°C 61.5°F16.4°C 88% Calm Calm -- 29.90 in1012.5 mb - 0.00 in0.0 mm 0.00 in0.0 mm
11:50 PM 65.0°F18.3°C 61.3°F16.3°C 88% Calm Calm -- 29.90 in1012.5 mb - 0.00 in0.0 mm 0.00 in0.0 mm